Fort Simpson Airport

Airport
ICAO code: 
CYFS
Summary
ICAO Region: 
NAM
Territory: 
Location: 
Fort Simpson, Northwest Territories,
Coordinates: 
Aerial View: 
61° 45' 37.364" N, 121° 14' 13.204" W
Airport BS: 
Non Avian Wildlife Hazards to Aircraft
Airport CFIT: 
Altimeter Temperature Error Correction
Airport GND: 
Aircraft Ground De/Anti Icing
Metar
Observation
CYFS 271100Z 00000KT 15SM FEW120 FEW190 M28/M31 A2995 RMK AC1AC2 AC TR SLP169
Station
Fort Simpson, N. W. T.
Date/Time
2021-11-27 11:00:00
Wind direction
Wind speed
00 kts
Lowest cloud amount
few clouds
Temperature
-28°C
Dew point
-31°C
Humidity
75%
Weather condition
n/a

Description

Regional airport serving the town of Fort Simpson, Northwest Territories, Canada.

Climatology

Subarctic climate (Köppen climate classification Dfc) - long, usually very cold winters, and short, cool to mild summers.

Runways

Designator Length Width Surface Rops
14/32 1829 46 ASP No/No
Airport map: 
Aerial View: 

SKYbrary Partners:

Safety knowledge contributed by: